METAR Data
IDs: Format: Raw Decoded Include TAF

Data at: 2334 UTC 26 Feb 2020

KLWD 262253Z AUTO 36014G20KT 10SM CLR 01/M11 A3025 RMK AO2 SLP257 T00111111
KLWD 262153Z AUTO 34013G22KT 10SM CLR 02/M11 A3025 RMK AO2 SLP255 T00171106
KLWD 262053Z AUTO 36014G26KT 10SM FEW044 01/M10 A3024 RMK AO2 PK WND 01026/2045 SLP254 T00061100 55012
KLWD 261953Z AUTO 34011G23KT 10SM SCT042 02/M09 A3024 RMK AO2 SLP253 T00171094
KLWD 261853Z AUTO 34011G23KT 10SM BKN037 01/M08 A3026 RMK AO2 SLP260 T00061078
KLWD 261804Z AUTO 33010G21KT 10SM SCT027 01/M07 A3028 RMK AO2 T00061067
KLWD 261753Z AUTO 33016G20KT 10SM BKN025 01/M07 A3028 RMK AO2 SLP267 T00061067 10006 21044 50002
KLWD 261746Z AUTO 33014G20KT 10SM BKN025 01/M07 A3029 RMK AO2 T00061067
KLWD 261653Z AUTO 34010G21KT 10SM FEW020 M01/M07 A3029 RMK AO2 SLP270 T10061067
KLWD 261553Z AUTO 33012KT 10SM FEW016 M02/M07 A3029 RMK AO2 SLP269 T10171067
KLWD 261453Z AUTO 33013KT 10SM FEW014 OVC060 M03/M07 A3027 RMK AO2 SLP266 T10281067 53009
KLWD 261353Z AUTO 34012KT 10SM BKN055 M03/M06 A3026 RMK AO2 SLP262 T10331061
KLWD 261253Z AUTO 33009KT 10SM CLR M04/M06 A3025 RMK AO2 SLP257 T10391061
KLWD 261153Z AUTO 34010KT 10SM CLR M04/M06 A3025 RMK AO2 SLP255 T10391061 11006 21039 53012
KLWD 261114Z AUTO 35011G19KT 10SM FEW013 M03/M06 A3023 RMK AO2 T10331056
KLWD 261053Z AUTO 34015G20KT 10SM BKN013 M03/M06 A3023 RMK AO2 SLP249 T10281056
KLWD 261036Z AUTO 34014KT 10SM BKN013 M03/M06 A3023 RMK AO2 T10281056
KLWD 260953Z AUTO 35014KT 10SM FEW015 M02/M05 A3022 RMK AO2 SLP243 T10221050
KLWD 260853Z AUTO 35013G19KT 10SM FEW049 SCT110 M02/M05 A3021 RMK AO2 PK WND 35026/0809 SLP241 T10171050 58002
KLWD 260753Z AUTO 35013G23KT 10SM OVC055 M01/M05 A3022 RMK AO2 SLP243 T10111050
KLWD 260653Z AUTO 35013G24KT 10SM OVC048 M01/M06 A3022 RMK AO2 SLP242 T10061061
KLWD 260553Z AUTO 36011KT 10SM OVC042 M01/M07 A3022 RMK AO2 SLP243 T10061067 10022 21006 400671006 51007
KLWD 260453Z AUTO 01012KT 10SM OVC044 M01/M06 A3021 RMK AO2 SLP241 T10061061
KLWD 260353Z AUTO 01016G23KT 10SM FEW039 OVC110 M01/M06 A3021 RMK AO2 PK WND 01026/0335 SLP241 T10061061
KLWD 260326Z AUTO 02015G25KT 10SM SCT027 OVC100 M01/M06 A3021 RMK AO2 T10061056
KLWD 260318Z AUTO 03013G22KT 10SM BKN028 BKN038 OVC110 00/M06 A3020 RMK AO2 T00001056
KLWD 260253Z AUTO 01014G22KT 10SM FEW027 BKN038 OVC110 00/M06 A3020 RMK AO2 SLP237 T00001056 51022
KLWD 260153Z AUTO 01012G22KT 10SM OVC038 01/M05 A3019 RMK AO2 PK WND 02026/0133 SLP235 T00061050
KLWD 260053Z AUTO 01014G23KT 10SM OVC036 01/M05 A3017 RMK AO2 SLP228 T00111050
KLWD 252353Z AUTO 01013G24KT 10SM FEW038 SCT120 02/M06 A3013 RMK AO2 SLP214 T00221061 10067 20022 53025
KLWD 252253Z AUTO 01016G25KT 10SM FEW120 03/M06 A3010 RMK AO2 PK WND 02028/2239 SLP202 T00331061
KLWD 252153Z AUTO 01011G23KT 10SM FEW042 05/M04 A3007 RMK AO2 PK WND 03028/2116 SLP192 T00501044
KLWD 252053Z AUTO 03015G25KT 10SM SCT037 05/M04 A3005 RMK AO2 PK WND 05026/2025 SLP186 T00501039 53008
KLWD 251953Z AUTO 04017G23KT 10SM CLR 07/M02 A3003 RMK AO2 PK WND 03027/1919 SLP178 T00671022
KLWD 251853Z AUTO 03015G24KT 10SM CLR 06/M03 A3003 RMK AO2 PK WND 01026/1840 SLP179 T00561028
KLWD 251753Z AUTO 04013G23KT 10SM CLR 05/M02 A3003 RMK AO2 SLP178 T00501022 10056 21006 53013
KLWD 251653Z AUTO 02015G23KT 10SM CLR 04/M03 A3001 RMK AO2 SLP172 T00441028
KLWD 251553Z AUTO 03014G21KT 10SM CLR 03/M03 A3000 RMK AO2 SLP170 T00281028
KLWD 251453Z AUTO 03015G23KT 10SM CLR 01/M04 A2999 RMK AO2 SLP166 T00111039 53021
KLWD 251353Z AUTO 03011G18KT 10SM CLR 00/M04 A2997 RMK AO2 SLP159 T00001039
KLWD 251253Z AUTO 03008KT 10SM CLR M01/M04 A2995 RMK AO2 SLP150 T10061044
KLWD 251153Z AUTO 03011KT 10SM CLR 00/M04 A2993 RMK AO2 SLP143 T00001044 10006 20000 53011